sensor_id;sensor_type;location;lat;lon;timestamp;pressure;altitude;pressure_sealevel;temperature;humidity
61357;BME280;47227;46.752;23.576;2023-04-26T00:01:36;95184.10;;;6.48;87.42
61357;BME280;47227;46.752;23.576;2023-04-26T00:04:05;95177.41;;;6.44;87.46
61357;BME280;47227;46.752;23.576;2023-04-26T00:06:35;95177.59;;;6.43;87.17
61357;BME280;47227;46.752;23.576;2023-04-26T00:09:04;95183.25;;;6.40;86.78
61357;BME280;47227;46.752;23.576;2023-04-26T00:11:33;95184.09;;;6.39;86.75
61357;BME280;47227;46.752;23.576;2023-04-26T00:14:01;95182.67;;;6.40;86.53
61357;BME280;47227;46.752;23.576;2023-04-26T00:16:29;95187.98;;;6.39;86.30
61357;BME280;47227;46.752;23.576;2023-04-26T00:52:40;95205.74;;;6.07;86.78
61357;BME280;47227;46.752;23.576;2023-04-26T04:25:10;95349.23;;;4.45;95.43
61357;BME280;47227;46.752;23.576;2023-04-26T04:44:04;95355.82;;;4.51;95.27
61357;BME280;47227;46.752;23.576;2023-04-26T04:55:54;95370.33;;;4.55;94.96
61357;BME280;47227;46.752;23.576;2023-04-26T05:03:57;95370.09;;;4.59;94.08
61357;BME280;47227;46.752;23.576;2023-04-26T05:07:55;95377.70;;;4.64;94.01
61357;BME280;47227;46.752;23.576;2023-04-26T05:10:55;95367.92;;;4.67;93.63
61357;BME280;47227;46.752;23.576;2023-04-26T05:14:10;95375.63;;;4.67;93.40
61357;BME280;47227;46.752;23.576;2023-04-26T05:17:13;95385.19;;;4.67;93.04
61357;BME280;47227;46.752;23.576;2023-04-26T05:20:09;95385.34;;;4.70;92.54
61357;BME280;47227;46.752;23.576;2023-04-26T05:22:58;95387.79;;;4.73;92.40
61357;BME280;47227;46.752;23.576;2023-04-26T05:25:29;95380.16;;;4.76;92.27
61357;BME280;47227;46.752;23.576;2023-04-26T05:28:05;95385.01;;;4.81;91.78
61357;BME280;47227;46.752;23.576;2023-04-26T05:30:57;95390.09;;;4.82;91.44
61357;BME280;47227;46.752;23.576;2023-04-26T05:33:33;95397.06;;;4.83;91.26
61357;BME280;47227;46.752;23.576;2023-04-26T05:36:15;95390.92;;;4.85;90.94
61357;BME280;47227;46.752;23.576;2023-04-26T05:38:44;95389.28;;;4.89;91.05
61357;BME280;47227;46.752;23.576;2023-04-26T05:41:33;95395.55;;;4.94;90.36
61357;BME280;47227;46.752;23.576;2023-04-26T05:45:07;95404.68;;;5.00;89.51
61357;BME280;47227;46.752;23.576;2023-04-26T05:48:03;95399.98;;;5.01;89.59
61357;BME280;47227;46.752;23.576;2023-04-26T05:50:50;95410.60;;;5.05;89.49
61357;BME280;47227;46.752;23.576;2023-04-26T05:53:23;95416.06;;;5.05;89.36
61357;BME280;47227;46.752;23.576;2023-04-26T05:55:51;95431.44;;;5.10;89.02
61357;BME280;47227;46.752;23.576;2023-04-26T05:58:20;95413.05;;;5.14;89.11
61357;BME280;47227;46.752;23.576;2023-04-26T06:00:49;95412.46;;;5.19;89.43
61357;BME280;47227;46.752;23.576;2023-04-26T06:03:18;95434.30;;;5.25;88.76
61357;BME280;47227;46.752;23.576;2023-04-26T06:05:47;95427.32;;;5.27;88.59
61357;BME280;47227;46.752;23.576;2023-04-26T06:08:15;95441.02;;;5.30;88.20
61357;BME280;47227;46.752;23.576;2023-04-26T06:10:43;95440.35;;;5.36;88.41
61357;BME280;47227;46.752;23.576;2023-04-26T06:13:13;95438.08;;;5.43;88.43
61357;BME280;47227;46.752;23.576;2023-04-26T06:15:42;95445.78;;;5.46;88.31
61357;BME280;47227;46.752;23.576;2023-04-26T06:18:10;95448.66;;;5.50;88.37
61357;BME280;47227;46.752;23.576;2023-04-26T06:20:41;95450.88;;;5.56;88.53
61357;BME280;47227;46.752;23.576;2023-04-26T06:23:15;95455.10;;;5.62;88.23
61357;BME280;47227;46.752;23.576;2023-04-26T06:25:59;95460.58;;;5.67;88.23
61357;BME280;47227;46.752;23.576;2023-04-26T06:28:28;95463.85;;;5.73;87.34
61357;BME280;47227;46.752;23.576;2023-04-26T06:56:40;95492.73;;;5.60;86.36
61357;BME280;47227;46.752;23.576;2023-04-26T07:17:33;95518.93;;;6.23;84.15
61357;BME280;47227;46.752;23.576;2023-04-26T07:21:35;95526.27;;;6.25;83.60
61357;BME280;47227;46.752;23.576;2023-04-26T07:25:22;95543.27;;;6.13;83.22
61357;BME280;47227;46.752;23.576;2023-04-26T07:31:43;95543.58;;;6.00;84.56
61357;BME280;47227;46.752;23.576;2023-04-26T07:35:47;95549.55;;;6.01;84.31
61357;BME280;47227;46.752;23.576;2023-04-26T07:39:29;95560.83;;;6.11;84.79
61357;BME280;47227;46.752;23.576;2023-04-26T07:43:16;95567.48;;;6.17;84.04
61357;BME280;47227;46.752;23.576;2023-04-26T07:46:33;95574.66;;;6.17;83.35
61357;BME280;47227;46.752;23.576;2023-04-26T07:49:38;95579.73;;;6.17;82.94
61357;BME280;47227;46.752;23.576;2023-04-26T07:52:59;95585.53;;;6.18;83.36
61357;BME280;47227;46.752;23.576;2023-04-26T07:55:53;95577.98;;;6.19;83.98
61357;BME280;47227;46.752;23.576;2023-04-26T07:58:48;95575.10;;;6.27;83.40
61357;BME280;47227;46.752;23.576;2023-04-26T08:01:23;95589.35;;;6.33;83.27
61357;BME280;47227;46.752;23.576;2023-04-26T08:04:32;95588.41;;;6.49;83.06
61357;BME280;47227;46.752;23.576;2023-04-26T08:07:52;95601.63;;;6.59;81.84
61357;BME280;47227;46.752;23.576;2023-04-26T08:10:43;95603.02;;;6.61;82.07
61357;BME280;47227;46.752;23.576;2023-04-26T08:13:19;95605.75;;;6.63;81.65
61357;BME280;47227;46.752;23.576;2023-04-26T08:19:59;95620.48;;;6.48;80.62
61357;BME280;47227;46.752;23.576;2023-04-26T08:23:02;95618.70;;;6.40;81.24
61357;BME280;47227;46.752;23.576;2023-04-26T08:25:56;95617.17;;;6.46;81.71
61357;BME280;47227;46.752;23.576;2023-04-26T08:28:55;95627.33;;;6.45;81.60
61357;BME280;47227;46.752;23.576;2023-04-26T09:19:53;95654.95;;;7.14;77.77
61357;BME280;47227;46.752;23.576;2023-04-26T09:29:16;95657.89;;;7.31;78.49
61357;BME280;47227;46.752;23.576;2023-04-26T09:31:52;95659.32;;;7.27;77.15
61357;BME280;47227;46.752;23.576;2023-04-26T09:34:28;95660.86;;;7.43;78.01
61357;BME280;47227;46.752;23.576;2023-04-26T09:44:27;95673.27;;;7.84;74.58
61357;BME280;47227;46.752;23.576;2023-04-26T09:51:09;95677.67;;;8.17;73.91
61357;BME280;47227;46.752;23.576;2023-04-26T09:53:48;95665.64;;;8.31;73.56
61357;BME280;47227;46.752;23.576;2023-04-26T09:56:38;95666.38;;;8.51;73.47
61357;BME280;47227;46.752;23.576;2023-04-26T09:59:26;95670.20;;;8.59;72.76
61357;BME280;47227;46.752;23.576;2023-04-26T10:02:14;95673.40;;;8.67;72.34
61357;BME280;47227;46.752;23.576;2023-04-26T10:04:47;95676.35;;;8.92;71.32
61357;BME280;47227;46.752;23.576;2023-04-26T10:07:23;95674.33;;;9.01;70.76
61357;BME280;47227;46.752;23.576;2023-04-26T10:12:51;95692.27;;;9.15;68.90
61357;BME280;47227;46.752;23.576;2023-04-26T10:16:14;95674.30;;;8.96;69.99
61357;BME280;47227;46.752;23.576;2023-04-26T10:18:45;95681.44;;;9.00;68.75
61357;BME280;47227;46.752;23.576;2023-04-26T10:21:23;95674.91;;;9.01;67.97
61357;BME280;47227;46.752;23.576;2023-04-26T10:24:03;95682.75;;;9.00;68.34
61357;BME280;47227;46.752;23.576;2023-04-26T10:26:47;95683.39;;;9.03;68.13
61357;BME280;47227;46.752;23.576;2023-04-26T10:29:22;95689.77;;;9.16;68.01
61357;BME280;47227;46.752;23.576;2023-04-26T10:32:06;95689.05;;;9.22;67.66
61357;BME280;47227;46.752;23.576;2023-04-26T10:34:37;95693.59;;;9.18;66.82
61357;BME280;47227;46.752;23.576;2023-04-26T10:37:13;95685.99;;;9.16;66.90
61357;BME280;47227;46.752;23.576;2023-04-26T10:44:40;95681.30;;;8.95;67.73
61357;BME280;47227;46.752;23.576;2023-04-26T10:48:14;95687.85;;;9.12;66.81
61357;BME280;47227;46.752;23.576;2023-04-26T10:51:11;95677.30;;;9.16;66.79
61357;BME280;47227;46.752;23.576;2023-04-26T10:53:59;95683.04;;;9.22;67.39
61357;BME280;47227;46.752;23.576;2023-04-26T10:56:49;95683.80;;;9.17;66.44
61357;BME280;47227;46.752;23.576;2023-04-26T11:06:08;95693.08;;;9.11;65.24
61357;BME280;47227;46.752;23.576;2023-04-26T11:09:01;95689.01;;;9.22;65.47
61357;BME280;47227;46.752;23.576;2023-04-26T11:12:12;95695.85;;;9.39;65.49
61357;BME280;47227;46.752;23.576;2023-04-26T11:24:26;95703.50;;;9.83;64.27
61357;BME280;47227;46.752;23.576;2023-04-26T11:27:18;95697.35;;;9.77;64.17
61357;BME280;47227;46.752;23.576;2023-04-26T11:38:28;95698.12;;;9.85;62.07
61357;BME280;47227;46.752;23.576;2023-04-26T11:41:09;95699.39;;;10.01;62.22
61357;BME280;47227;46.752;23.576;2023-04-26T11:44:10;95701.72;;;10.10;60.63
61357;BME280;47227;46.752;23.576;2023-04-26T11:51:02;95706.11;;;9.81;59.03
61357;BME280;47227;46.752;23.576;2023-04-26T11:54:30;95704.16;;;9.75;60.85
61357;BME280;47227;46.752;23.576;2023-04-26T12:00:26;95706.05;;;9.55;63.20
61357;BME280;47227;46.752;23.576;2023-04-26T12:03:58;95710.06;;;9.51;63.47
61357;BME280;47227;46.752;23.576;2023-04-26T12:09:50;95710.45;;;9.90;63.22
61357;BME280;47227;46.752;23.576;2023-04-26T12:13:22;95703.55;;;10.10;62.04
61357;BME280;47227;46.752;23.576;2023-04-26T12:17:31;95702.82;;;10.41;61.00
61357;BME280;47227;46.752;23.576;2023-04-26T12:20:18;95702.37;;;10.56;60.08
61357;BME280;47227;46.752;23.576;2023-04-26T12:23:03;95707.25;;;10.77;58.96
61357;BME280;47227;46.752;23.576;2023-04-26T12:25:51;95706.31;;;10.89;59.50
61357;BME280;47227;46.752;23.576;2023-04-26T12:28:24;95709.99;;;10.99;58.29
61357;BME280;47227;46.752;23.576;2023-04-26T12:31:14;95714.29;;;11.09;56.48
61357;BME280;47227;46.752;23.576;2023-04-26T13:53:42;95748.15;;;9.76;58.83
61357;BME280;47227;46.752;23.576;2023-04-26T13:59:26;95751.57;;;9.87;59.21
61357;BME280;47227;46.752;23.576;2023-04-26T14:02:28;95753.33;;;9.98;58.82
61357;BME280;47227;46.752;23.576;2023-04-26T14:04:59;95754.04;;;10.13;58.10
61357;BME280;47227;46.752;23.576;2023-04-26T14:07:28;95757.78;;;10.08;54.86
61357;BME280;47227;46.752;23.576;2023-04-26T14:10:05;95768.41;;;10.29;54.53
61357;BME280;47227;46.752;23.576;2023-04-26T14:26:24;95771.16;;;10.92;53.22
61357;BME280;47227;46.752;23.576;2023-04-26T14:29:36;95788.13;;;10.93;51.46
61357;BME280;47227;46.752;23.576;2023-04-26T14:32:06;95780.02;;;10.70;51.80
61357;BME280;47227;46.752;23.576;2023-04-26T14:34:46;95788.40;;;10.66;52.10
61357;BME280;47227;46.752;23.576;2023-04-26T14:37:17;95792.45;;;10.52;51.58
61357;BME280;47227;46.752;23.576;2023-04-26T14:39:55;95790.65;;;10.22;51.66
61357;BME280;47227;46.752;23.576;2023-04-26T14:42:29;95791.50;;;10.23;51.90
61357;BME280;47227;46.752;23.576;2023-04-26T14:45:05;95794.91;;;10.18;51.99
61357;BME280;47227;46.752;23.576;2023-04-26T14:48:13;95799.67;;;10.13;51.78
61357;BME280;47227;46.752;23.576;2023-04-26T14:51:11;95803.38;;;9.97;52.66
61357;BME280;47227;46.752;23.576;2023-04-26T14:53:44;95807.16;;;10.01;53.55
61357;BME280;47227;46.752;23.576;2023-04-26T14:56:17;95809.17;;;10.01;53.02
61357;BME280;47227;46.752;23.576;2023-04-26T14:59:06;95811.48;;;10.07;52.26
61357;BME280;47227;46.752;23.576;2023-04-26T15:01:58;95806.29;;;10.04;52.13
61357;BME280;47227;46.752;23.576;2023-04-26T15:04:29;95808.19;;;10.29;52.72
61357;BME280;47227;46.752;23.576;2023-04-26T15:07:20;95814.41;;;10.32;52.28
61357;BME280;47227;46.752;23.576;2023-04-26T15:10:17;95820.87;;;10.26;52.85
61357;BME280;47227;46.752;23.576;2023-04-26T15:13:09;95823.80;;;10.26;53.02
61357;BME280;47227;46.752;23.576;2023-04-26T15:15:42;95825.53;;;10.33;52.70
61357;BME280;47227;46.752;23.576;2023-04-26T15:18:45;95833.39;;;10.34;51.58
61357;BME280;47227;46.752;23.576;2023-04-26T15:21:55;95831.13;;;10.06;51.19
61357;BME280;47227;46.752;23.576;2023-04-26T15:24:24;95836.30;;;10.21;51.41
61357;BME280;47227;46.752;23.576;2023-04-26T15:26:52;95839.82;;;10.94;50.74
61357;BME280;47227;46.752;23.576;2023-04-26T15:29:21;95839.24;;;10.94;49.58
61357;BME280;47227;46.752;23.576;2023-04-26T15:31:50;95841.48;;;11.18;49.27
61357;BME280;47227;46.752;23.576;2023-04-26T15:34:18;95839.14;;;11.26;48.45
61357;BME280;47227;46.752;23.576;2023-04-26T15:36:47;95841.23;;;11.45;48.20
61357;BME280;47227;46.752;23.576;2023-04-26T15:39:31;95838.06;;;11.76;47.05
61357;BME280;47227;46.752;23.576;2023-04-26T15:41:59;95835.51;;;12.06;46.57
61357;BME280;47227;46.752;23.576;2023-04-26T15:44:28;95839.36;;;12.80;44.39
61357;BME280;47227;46.752;23.576;2023-04-26T15:46:58;95838.23;;;13.58;44.26
61357;BME280;47227;46.752;23.576;2023-04-26T15:49:29;95836.13;;;14.14;41.96
61357;BME280;47227;46.752;23.576;2023-04-26T15:51:57;95839.70;;;14.49;40.94
61357;BME280;47227;46.752;23.576;2023-04-26T15:54:25;95842.45;;;14.91;40.19
61357;BME280;47227;46.752;23.576;2023-04-26T15:56:53;95837.27;;;14.60;39.61
61357;BME280;47227;46.752;23.576;2023-04-26T15:59:23;95848.31;;;14.13;40.13
61357;BME280;47227;46.752;23.576;2023-04-26T16:01:52;95850.98;;;13.38;41.17
61357;BME280;47227;46.752;23.576;2023-04-26T16:04:20;95852.23;;;13.60;41.52
61357;BME280;47227;46.752;23.576;2023-04-26T16:06:57;95855.36;;;13.52;41.06
61357;BME280;47227;46.752;23.576;2023-04-26T16:09:27;95854.08;;;13.49;41.87
61357;BME280;47227;46.752;23.576;2023-04-26T16:11:56;95855.92;;;13.04;41.98
61357;BME280;47227;46.752;23.576;2023-04-26T16:14:24;95857.80;;;12.89;42.66
61357;BME280;47227;46.752;23.576;2023-04-26T16:16:53;95856.30;;;12.63;43.25
61357;BME280;47227;46.752;23.576;2023-04-26T16:19:21;95862.23;;;12.24;44.48
61357;BME280;47227;46.752;23.576;2023-04-26T16:21:51;95864.95;;;12.01;44.33
61357;BME280;47227;46.752;23.576;2023-04-26T16:24:26;95869.86;;;12.33;43.36
61357;BME280;47227;46.752;23.576;2023-04-26T16:26:58;95871.52;;;12.59;42.95
61357;BME280;47227;46.752;23.576;2023-04-26T16:29:26;95870.50;;;12.85;42.58
61357;BME280;47227;46.752;23.576;2023-04-26T16:31:55;95873.48;;;12.92;42.70
61357;BME280;47227;46.752;23.576;2023-04-26T16:34:25;95874.23;;;12.36;42.69
61357;BME280;47227;46.752;23.576;2023-04-26T16:36:53;95881.69;;;11.64;44.20
61357;BME280;47227;46.752;23.576;2023-04-26T16:39:24;95886.17;;;11.29;44.15
61357;BME280;47227;46.752;23.576;2023-04-26T16:42:18;95889.61;;;11.38;45.08
61357;BME280;47227;46.752;23.576;2023-04-26T16:44:47;95894.98;;;10.79;44.84
61357;BME280;47227;46.752;23.576;2023-04-26T16:47:15;95894.48;;;10.28;46.03
61357;BME280;47227;46.752;23.576;2023-04-26T16:49:43;95892.76;;;10.20;46.69
61357;BME280;47227;46.752;23.576;2023-04-26T16:52:11;95893.52;;;10.52;46.39
61357;BME280;47227;46.752;23.576;2023-04-26T16:54:40;95903.90;;;10.78;45.56
61357;BME280;47227;46.752;23.576;2023-04-26T16:57:09;95900.98;;;10.68;45.53
61357;BME280;47227;46.752;23.576;2023-04-26T16:59:38;95904.66;;;10.58;45.52
61357;BME280;47227;46.752;23.576;2023-04-26T17:02:06;95906.62;;;10.38;45.96
61357;BME280;47227;46.752;23.576;2023-04-26T17:04:34;95914.66;;;10.27;46.47
61357;BME280;47227;46.752;23.576;2023-04-26T17:07:26;95911.83;;;9.83;47.53
61357;BME280;47227;46.752;23.576;2023-04-26T17:09:58;95914.98;;;9.39;48.63
61357;BME280;47227;46.752;23.576;2023-04-26T17:12:28;95917.16;;;9.24;48.81
61357;BME280;47227;46.752;23.576;2023-04-26T17:14:57;95921.02;;;9.15;49.69
61357;BME280;47227;46.752;23.576;2023-04-26T17:17:27;95920.35;;;9.14;49.64
61357;BME280;47227;46.752;23.576;2023-04-26T17:19:55;95926.10;;;8.99;50.22
61357;BME280;47227;46.752;23.576;2023-04-26T17:22:23;95929.71;;;8.75;50.90
61357;BME280;47227;46.752;23.576;2023-04-26T17:25:24;95939.56;;;8.42;52.00
61357;BME280;47227;46.752;23.576;2023-04-26T17:27:56;95940.73;;;8.09;53.44
61357;BME280;47227;46.752;23.576;2023-04-26T17:30:29;95944.19;;;7.99;53.32
61357;BME280;47227;46.752;23.576;2023-04-26T17:33:15;95947.52;;;7.81;54.19
61357;BME280;47227;46.752;23.576;2023-04-26T17:35:43;95950.13;;;7.71;54.06
61357;BME280;47227;46.752;23.576;2023-04-26T17:38:12;95953.20;;;7.58;55.01
61357;BME280;47227;46.752;23.576;2023-04-26T17:40:42;95959.72;;;7.46;55.27
61357;BME280;47227;46.752;23.576;2023-04-26T17:43:12;95964.08;;;7.32;56.54
61357;BME280;47227;46.752;23.576;2023-04-26T17:45:40;95967.42;;;7.24;57.72
61357;BME280;47227;46.752;23.576;2023-04-26T17:48:09;95969.38;;;7.17;57.31
61357;BME280;47227;46.752;23.576;2023-04-26T17:50:40;95974.98;;;7.06;58.28
61357;BME280;47227;46.752;23.576;2023-04-26T17:53:12;95978.40;;;6.98;58.73
61357;BME280;47227;46.752;23.576;2023-04-26T17:55:40;95979.63;;;6.88;59.28
61357;BME280;47227;46.752;23.576;2023-04-26T17:58:10;95979.11;;;6.83;58.86
61357;BME280;47227;46.752;23.576;2023-04-26T18:00:38;95974.73;;;6.73;59.74
61357;BME280;47227;46.752;23.576;2023-04-26T18:03:07;95980.55;;;6.67;59.96
61357;BME280;47227;46.752;23.576;2023-04-26T18:05:38;95980.17;;;6.61;59.77
61357;BME280;47227;46.752;23.576;2023-04-26T18:08:07;95985.97;;;6.54;61.25
61357;BME280;47227;46.752;23.576;2023-04-26T18:10:36;95983.79;;;6.45;61.21
61357;BME280;47227;46.752;23.576;2023-04-26T18:13:04;95987.51;;;6.41;61.19
61357;BME280;47227;46.752;23.576;2023-04-26T18:15:37;95989.64;;;6.38;61.09
61357;BME280;47227;46.752;23.576;2023-04-26T18:18:06;95985.17;;;6.34;61.15
61357;BME280;47227;46.752;23.576;2023-04-26T18:20:35;95990.23;;;6.30;60.32
61357;BME280;47227;46.752;23.576;2023-04-26T18:23:04;95993.20;;;6.22;61.58
61357;BME280;47227;46.752;23.576;2023-04-26T18:25:33;95993.10;;;6.16;61.95
61357;BME280;47227;46.752;23.576;2023-04-26T18:28:00;96002.20;;;6.11;61.54
61357;BME280;47227;46.752;23.576;2023-04-26T18:30:30;96005.68;;;6.03;61.16
61357;BME280;47227;46.752;23.576;2023-04-26T18:33:00;96012.27;;;5.96;60.94
61357;BME280;47227;46.752;23.576;2023-04-26T18:35:28;96015.73;;;5.89;61.13
61357;BME280;47227;46.752;23.576;2023-04-26T18:37:57;96018.40;;;5.81;61.34
61357;BME280;47227;46.752;23.576;2023-04-26T18:40:25;96019.57;;;5.74;61.49
61357;BME280;47227;46.752;23.576;2023-04-26T18:42:53;96016.77;;;5.67;61.45
61357;BME280;47227;46.752;23.576;2023-04-26T18:45:21;96021.77;;;5.59;61.63
61357;BME280;47227;46.752;23.576;2023-04-26T18:47:49;96024.86;;;5.52;61.75
61357;BME280;47227;46.752;23.576;2023-04-26T18:50:20;96027.95;;;5.46;61.90
61357;BME280;47227;46.752;23.576;2023-04-26T18:52:48;96025.95;;;5.39;61.91
61357;BME280;47227;46.752;23.576;2023-04-26T18:55:16;96026.73;;;5.32;61.88
61357;BME280;47227;46.752;23.576;2023-04-26T18:57:44;96032.13;;;5.26;62.40
61357;BME280;47227;46.752;23.576;2023-04-26T19:00:12;96032.06;;;5.20;62.56
61357;BME280;47227;46.752;23.576;2023-04-26T19:02:42;96037.85;;;5.15;62.75
61357;BME280;47227;46.752;23.576;2023-04-26T19:05:10;96035.86;;;5.11;62.86
61357;BME280;47227;46.752;23.576;2023-04-26T19:07:40;96036.14;;;5.07;62.84
61357;BME280;47227;46.752;23.576;2023-04-26T19:10:09;96040.14;;;5.04;63.11
61357;BME280;47227;46.752;23.576;2023-04-26T19:12:37;96042.26;;;5.00;63.06
61357;BME280;47227;46.752;23.576;2023-04-26T19:15:06;96048.74;;;4.95;63.04
61357;BME280;47227;46.752;23.576;2023-04-26T19:17:34;96048.53;;;4.90;63.57
61357;BME280;47227;46.752;23.576;2023-04-26T19:20:04;96049.93;;;4.82;63.68
61357;BME280;47227;46.752;23.576;2023-04-26T19:22:34;96051.05;;;4.74;63.54
61357;BME280;47227;46.752;23.576;2023-04-26T19:25:22;96052.56;;;4.67;63.72
61357;BME280;47227;46.752;23.576;2023-04-26T19:27:51;96047.01;;;4.59;63.82
61357;BME280;47227;46.752;23.576;2023-04-26T19:30:19;96053.07;;;4.55;63.95
61357;BME280;47227;46.752;23.576;2023-04-26T19:32:47;96053.98;;;4.51;64.92
61357;BME280;47227;46.752;23.576;2023-04-26T19:35:15;96055.11;;;4.46;64.45
61357;BME280;47227;46.752;23.576;2023-04-26T19:37:44;96052.06;;;4.44;64.73
61357;BME280;47227;46.752;23.576;2023-04-26T19:40:12;96054.72;;;4.40;64.68
61357;BME280;47227;46.752;23.576;2023-04-26T19:42:40;96053.63;;;4.37;64.83
61357;BME280;47227;46.752;23.576;2023-04-26T19:45:09;96051.11;;;4.34;65.10
61357;BME280;47227;46.752;23.576;2023-04-26T19:47:57;96049.58;;;4.30;64.97
61357;BME280;47227;46.752;23.576;2023-04-26T19:50:25;96050.92;;;4.26;65.08
61357;BME280;47227;46.752;23.576;2023-04-26T19:52:53;96052.35;;;4.24;65.24
61357;BME280;47227;46.752;23.576;2023-04-26T19:55:21;96054.23;;;4.20;65.47
61357;BME280;47227;46.752;23.576;2023-04-26T19:57:49;96057.67;;;4.17;65.61
61357;BME280;47227;46.752;23.576;2023-04-26T20:00:19;96058.83;;;4.12;65.80
61357;BME280;47227;46.752;23.576;2023-04-26T20:02:48;96059.78;;;4.08;66.04
61357;BME280;47227;46.752;23.576;2023-04-26T20:05:18;96061.21;;;4.08;65.85
61357;BME280;47227;46.752;23.576;2023-04-26T20:07:46;96061.73;;;4.08;66.20
61357;BME280;47227;46.752;23.576;2023-04-26T20:10:16;96063.48;;;4.07;66.32
61357;BME280;47227;46.752;23.576;2023-04-26T20:12:59;96064.45;;;4.06;66.44
61357;BME280;47227;46.752;23.576;2023-04-26T20:15:31;96067.56;;;4.07;66.77
61357;BME280;47227;46.752;23.576;2023-04-26T20:18:01;96066.08;;;4.08;66.64
61357;BME280;47227;46.752;23.576;2023-04-26T20:20:32;96068.53;;;4.10;66.88
61357;BME280;47227;46.752;23.576;2023-04-26T20:23:02;96068.88;;;4.13;66.94
61357;BME280;47227;46.752;23.576;2023-04-26T20:25:31;96068.98;;;4.15;67.04
61357;BME280;47227;46.752;23.576;2023-04-26T20:28:00;96069.79;;;4.14;67.16
61357;BME280;47227;46.752;23.576;2023-04-26T20:30:31;96072.21;;;4.15;67.03
61357;BME280;47227;46.752;23.576;2023-04-26T20:33:01;96068.76;;;4.14;67.03
61357;BME280;47227;46.752;23.576;2023-04-26T20:35:29;96071.29;;;4.12;67.14
61357;BME280;47227;46.752;23.576;2023-04-26T20:37:58;96070.76;;;4.08;67.03
61357;BME280;47227;46.752;23.576;2023-04-26T20:40:26;96069.69;;;4.02;67.01
61357;BME280;47227;46.752;23.576;2023-04-26T20:43:16;96077.92;;;3.96;67.01
61357;BME280;47227;46.752;23.576;2023-04-26T20:45:46;96076.50;;;3.90;67.18
61357;BME280;47227;46.752;23.576;2023-04-26T20:48:15;96078.26;;;3.84;67.24
61357;BME280;47227;46.752;23.576;2023-04-26T20:50:44;96080.25;;;3.78;67.40
61357;BME280;47227;46.752;23.576;2023-04-26T20:53:12;96080.29;;;3.71;67.44
61357;BME280;47227;46.752;23.576;2023-04-26T20:55:41;96086.71;;;3.63;67.54
61357;BME280;47227;46.752;23.576;2023-04-26T20:58:10;96086.72;;;3.55;67.76
61357;BME280;47227;46.752;23.576;2023-04-26T21:00:42;96092.08;;;3.44;67.64
61357;BME280;47227;46.752;23.576;2023-04-26T21:03:10;96094.74;;;3.35;67.79
61357;BME280;47227;46.752;23.576;2023-04-26T21:05:42;96096.77;;;3.26;68.08
61357;BME280;47227;46.752;23.576;2023-04-26T21:08:31;96097.83;;;3.19;68.43
61357;BME280;47227;46.752;23.576;2023-04-26T21:11:03;96100.20;;;3.15;68.67
61357;BME280;47227;46.752;23.576;2023-04-26T21:13:32;96101.41;;;3.11;68.66
61357;BME280;47227;46.752;23.576;2023-04-26T21:16:00;96102.65;;;3.06;69.05
61357;BME280;47227;46.752;23.576;2023-04-26T21:18:31;96105.13;;;3.06;69.13
61357;BME280;47227;46.752;23.576;2023-04-26T21:21:00;96107.05;;;3.03;69.02
61357;BME280;47227;46.752;23.576;2023-04-26T21:23:28;96110.20;;;3.00;69.28
61357;BME280;47227;46.752;23.576;2023-04-26T21:25:57;96113.55;;;2.97;69.18
61357;BME280;47227;46.752;23.576;2023-04-26T21:28:26;96116.31;;;2.94;69.39
61357;BME280;47227;46.752;23.576;2023-04-26T21:31:01;96115.09;;;2.92;69.58
61357;BME280;47227;46.752;23.576;2023-04-26T21:33:34;96113.80;;;2.90;70.02
61357;BME280;47227;46.752;23.576;2023-04-26T21:36:03;96112.96;;;2.90;70.21
61357;BME280;47227;46.752;23.576;2023-04-26T21:38:36;96113.08;;;2.93;70.35
61357;BME280;47227;46.752;23.576;2023-04-26T21:41:06;96116.42;;;2.98;70.69
61357;BME280;47227;46.752;23.576;2023-04-26T21:43:35;96117.14;;;3.03;70.90
61357;BME280;47227;46.752;23.576;2023-04-26T21:46:04;96120.16;;;3.06;71.01
61357;BME280;47227;46.752;23.576;2023-04-26T21:48:52;96127.20;;;3.12;71.26
61357;BME280;47227;46.752;23.576;2023-04-26T21:51:21;96121.33;;;3.14;70.92
61357;BME280;47227;46.752;23.576;2023-04-26T21:53:52;96124.92;;;3.14;70.86
61357;BME280;47227;46.752;23.576;2023-04-26T21:56:22;96125.24;;;3.13;70.79
61357;BME280;47227;46.752;23.576;2023-04-26T21:58:51;96121.14;;;3.08;70.78
61357;BME280;47227;46.752;23.576;2023-04-26T22:01:19;96126.02;;;3.06;70.71
61357;BME280;47227;46.752;23.576;2023-04-26T22:03:48;96129.25;;;3.01;70.66
61357;BME280;47227;46.752;23.576;2023-04-26T22:06:17;96129.15;;;2.94;70.86
61357;BME280;47227;46.752;23.576;2023-04-26T22:08:49;96137.37;;;2.89;71.06
61357;BME280;47227;46.752;23.576;2023-04-26T22:11:18;96141.55;;;2.84;71.37
61357;BME280;47227;46.752;23.576;2023-04-26T22:13:47;96143.20;;;2.78;71.04
61357;BME280;47227;46.752;23.576;2023-04-26T22:16:15;96141.45;;;2.73;71.60
61357;BME280;47227;46.752;23.576;2023-04-26T22:18:44;96141.69;;;2.67;71.30
61357;BME280;47227;46.752;23.576;2023-04-26T22:21:13;96143.65;;;2.61;71.13
61357;BME280;47227;46.752;23.576;2023-04-26T22:23:42;96143.84;;;2.57;71.23
61357;BME280;47227;46.752;23.576;2023-04-26T22:26:11;96140.70;;;2.53;71.85
61357;BME280;47227;46.752;23.576;2023-04-26T22:28:40;96140.75;;;2.50;71.49
61357;BME280;47227;46.752;23.576;2023-04-26T22:31:09;96142.38;;;2.50;71.82
61357;BME280;47227;46.752;23.576;2023-04-26T23:35:40;96136.47;;;2.38;72.08
61357;BME280;47227;46.752;23.576;2023-04-26T23:58:25;96139.08;;;2.03;73.01
